sensor_id;sensor_type;location;lat;lon;timestamp;temperature;humidity
26691;DHT22;14307;51.718;8.938;2023-06-22T00:01:19;17.00;99.90
26691;DHT22;14307;51.718;8.938;2023-06-22T00:03:46;16.90;99.90
26691;DHT22;14307;51.718;8.938;2023-06-22T00:06:13;17.00;99.90
26691;DHT22;14307;51.718;8.938;2023-06-22T00:08:44;17.00;99.90
26691;DHT22;14307;51.718;8.938;2023-06-22T00:11:11;16.90;99.90
26691;DHT22;14307;51.718;8.938;2023-06-22T00:13:38;16.80;99.90
26691;DHT22;14307;51.718;8.938;2023-06-22T00:16:05;16.80;99.90
26691;DHT22;14307;51.718;8.938;2023-06-22T00:18:32;16.80;99.90
26691;DHT22;14307;51.718;8.938;2023-06-22T00:20:59;16.70;99.90
26691;DHT22;14307;51.718;8.938;2023-06-22T00:23:26;16.80;99.90
26691;DHT22;14307;51.718;8.938;2023-06-22T00:25:53;16.80;99.90
26691;DHT22;14307;51.718;8.938;2023-06-22T00:28:20;16.70;99.90
26691;DHT22;14307;51.718;8.938;2023-06-22T00:30:50;16.70;99.90
26691;DHT22;14307;51.718;8.938;2023-06-22T00:33:18;16.90;99.90
26691;DHT22;14307;51.718;8.938;2023-06-22T00:35:44;17.10;99.90
26691;DHT22;14307;51.718;8.938;2023-06-22T00:38:11;17.10;99.90
26691;DHT22;14307;51.718;8.938;2023-06-22T00:40:41;17.00;99.90
26691;DHT22;14307;51.718;8.938;2023-06-22T00:43:08;17.00;99.90
26691;DHT22;14307;51.718;8.938;2023-06-22T00:45:35;17.10;99.90
26691;DHT22;14307;51.718;8.938;2023-06-22T00:48:02;17.00;99.90
26691;DHT22;14307;51.718;8.938;2023-06-22T00:50:31;16.80;99.90
26691;DHT22;14307;51.718;8.938;2023-06-22T00:53:05;16.90;99.90
26691;DHT22;14307;51.718;8.938;2023-06-22T00:55:37;16.90;99.90
26691;DHT22;14307;51.718;8.938;2023-06-22T00:58:06;17.00;99.90
26691;DHT22;14307;51.718;8.938;2023-06-22T01:00:38;17.10;99.90
26691;DHT22;14307;51.718;8.938;2023-06-22T01:03:05;17.00;99.90
26691;DHT22;14307;51.718;8.938;2023-06-22T01:05:36;17.10;99.90
26691;DHT22;14307;51.718;8.938;2023-06-22T01:10:49;17.30;99.90
26691;DHT22;14307;51.718;8.938;2023-06-22T01:16:24;17.40;99.90
26691;DHT22;14307;51.718;8.938;2023-06-22T01:18:54;17.30;99.90
26691;DHT22;14307;51.718;8.938;2023-06-22T01:21:24;17.20;99.90
26691;DHT22;14307;51.718;8.938;2023-06-22T01:26:48;17.20;99.90
26691;DHT22;14307;51.718;8.938;2023-06-22T01:29:19;17.30;99.90
26691;DHT22;14307;51.718;8.938;2023-06-22T01:31:48;17.40;99.90
26691;DHT22;14307;51.718;8.938;2023-06-22T01:34:16;17.40;99.90
26691;DHT22;14307;51.718;8.938;2023-06-22T01:36:44;17.60;99.90
26691;DHT22;14307;51.718;8.938;2023-06-22T01:39:11;17.60;99.90
26691;DHT22;14307;51.718;8.938;2023-06-22T01:41:40;17.60;99.90
26691;DHT22;14307;51.718;8.938;2023-06-22T01:44:09;17.60;99.90
26691;DHT22;14307;51.718;8.938;2023-06-22T01:46:36;17.50;99.90
26691;DHT22;14307;51.718;8.938;2023-06-22T01:49:04;17.50;99.90
26691;DHT22;14307;51.718;8.938;2023-06-22T01:51:32;17.60;99.90
26691;DHT22;14307;51.718;8.938;2023-06-22T01:53:59;17.50;99.90
26691;DHT22;14307;51.718;8.938;2023-06-22T01:56:26;17.50;99.90
26691;DHT22;14307;51.718;8.938;2023-06-22T01:59:17;17.50;99.90
26691;DHT22;14307;51.718;8.938;2023-06-22T02:02:09;17.60;99.90
26691;DHT22;14307;51.718;8.938;2023-06-22T02:04:46;17.50;99.90
26691;DHT22;14307;51.718;8.938;2023-06-22T02:07:16;17.60;99.90
26691;DHT22;14307;51.718;8.938;2023-06-22T02:09:45;17.80;99.90
26691;DHT22;14307;51.718;8.938;2023-06-22T02:12:18;17.80;99.90
26691;DHT22;14307;51.718;8.938;2023-06-22T02:14:47;17.70;99.90
26691;DHT22;14307;51.718;8.938;2023-06-22T02:17:14;17.50;99.90
26691;DHT22;14307;51.718;8.938;2023-06-22T02:19:41;17.70;99.90
26691;DHT22;14307;51.718;8.938;2023-06-22T02:22:08;17.70;99.90
26691;DHT22;14307;51.718;8.938;2023-06-22T02:24:36;17.70;99.90
26691;DHT22;14307;51.718;8.938;2023-06-22T02:27:03;17.70;99.90
26691;DHT22;14307;51.718;8.938;2023-06-22T02:29:31;17.60;99.90
26691;DHT22;14307;51.718;8.938;2023-06-22T02:31:58;17.60;99.90
26691;DHT22;14307;51.718;8.938;2023-06-22T02:34:25;17.60;99.90
26691;DHT22;14307;51.718;8.938;2023-06-22T02:36:52;17.70;99.90
26691;DHT22;14307;51.718;8.938;2023-06-22T02:39:23;17.90;99.90
26691;DHT22;14307;51.718;8.938;2023-06-22T02:41:51;18.00;99.90
26691;DHT22;14307;51.718;8.938;2023-06-22T02:44:19;18.10;99.90
26691;DHT22;14307;51.718;8.938;2023-06-22T02:46:48;18.00;99.90
26691;DHT22;14307;51.718;8.938;2023-06-22T02:49:16;17.80;99.90
26691;DHT22;14307;51.718;8.938;2023-06-22T02:51:46;17.70;99.90
26691;DHT22;14307;51.718;8.938;2023-06-22T02:54:15;17.60;99.90
26691;DHT22;14307;51.718;8.938;2023-06-22T02:56:43;17.60;99.90
26691;DHT22;14307;51.718;8.938;2023-06-22T02:59:10;17.70;99.90
26691;DHT22;14307;51.718;8.938;2023-06-22T03:01:38;17.70;99.90
26691;DHT22;14307;51.718;8.938;2023-06-22T03:04:16;17.80;99.90
26691;DHT22;14307;51.718;8.938;2023-06-22T03:06:43;17.80;99.90
26691;DHT22;14307;51.718;8.938;2023-06-22T03:09:09;17.90;99.90
26691;DHT22;14307;51.718;8.938;2023-06-22T03:11:37;17.90;99.90
26691;DHT22;14307;51.718;8.938;2023-06-22T03:14:04;17.90;99.90
26691;DHT22;14307;51.718;8.938;2023-06-22T03:16:30;17.90;99.90
26691;DHT22;14307;51.718;8.938;2023-06-22T03:18:57;17.90;99.90
26691;DHT22;14307;51.718;8.938;2023-06-22T03:21:28;17.90;99.90
26691;DHT22;14307;51.718;8.938;2023-06-22T03:23:55;17.80;99.90
26691;DHT22;14307;51.718;8.938;2023-06-22T03:26:22;17.80;99.90
26691;DHT22;14307;51.718;8.938;2023-06-22T03:28:50;17.80;99.90
26691;DHT22;14307;51.718;8.938;2023-06-22T03:31:17;17.90;99.90
26691;DHT22;14307;51.718;8.938;2023-06-22T03:33:49;18.00;99.90
26691;DHT22;14307;51.718;8.938;2023-06-22T03:36:17;18.00;99.90
26691;DHT22;14307;51.718;8.938;2023-06-22T03:38:48;18.00;99.90
26691;DHT22;14307;51.718;8.938;2023-06-22T03:41:15;18.10;99.90
26691;DHT22;14307;51.718;8.938;2023-06-22T03:43:43;18.00;99.90
26691;DHT22;14307;51.718;8.938;2023-06-22T03:46:10;18.10;99.90
26691;DHT22;14307;51.718;8.938;2023-06-22T03:48:38;18.10;99.90
26691;DHT22;14307;51.718;8.938;2023-06-22T03:51:04;18.20;99.90
26691;DHT22;14307;51.718;8.938;2023-06-22T03:53:31;18.10;99.90
26691;DHT22;14307;51.718;8.938;2023-06-22T03:55:58;18.10;99.90
26691;DHT22;14307;51.718;8.938;2023-06-22T03:58:24;18.10;99.90
26691;DHT22;14307;51.718;8.938;2023-06-22T04:00:52;18.10;99.90
26691;DHT22;14307;51.718;8.938;2023-06-22T04:03:19;18.10;99.90
26691;DHT22;14307;51.718;8.938;2023-06-22T04:05:47;18.10;99.90
26691;DHT22;14307;51.718;8.938;2023-06-22T04:08:15;18.20;99.90
26691;DHT22;14307;51.718;8.938;2023-06-22T04:10:43;18.30;99.90
26691;DHT22;14307;51.718;8.938;2023-06-22T04:13:09;18.30;99.90
26691;DHT22;14307;51.718;8.938;2023-06-22T04:15:36;18.20;99.90
26691;DHT22;14307;51.718;8.938;2023-06-22T04:18:03;18.30;99.90
26691;DHT22;14307;51.718;8.938;2023-06-22T04:20:31;18.30;99.90
26691;DHT22;14307;51.718;8.938;2023-06-22T04:22:58;18.30;99.90
26691;DHT22;14307;51.718;8.938;2023-06-22T04:25:25;18.40;99.90
26691;DHT22;14307;51.718;8.938;2023-06-22T04:27:52;18.50;99.90
26691;DHT22;14307;51.718;8.938;2023-06-22T04:30:19;18.60;99.90
26691;DHT22;14307;51.718;8.938;2023-06-22T04:32:46;18.60;99.90
26691;DHT22;14307;51.718;8.938;2023-06-22T04:35:24;18.60;99.90
26691;DHT22;14307;51.718;8.938;2023-06-22T04:37:53;18.60;99.90
26691;DHT22;14307;51.718;8.938;2023-06-22T04:40:22;18.70;99.90
26691;DHT22;14307;51.718;8.938;2023-06-22T04:42:49;18.70;99.90
26691;DHT22;14307;51.718;8.938;2023-06-22T04:45:20;18.60;99.90
26691;DHT22;14307;51.718;8.938;2023-06-22T04:47:47;18.80;99.90
26691;DHT22;14307;51.718;8.938;2023-06-22T04:50:14;18.90;99.90
26691;DHT22;14307;51.718;8.938;2023-06-22T04:52:41;19.00;99.90
26691;DHT22;14307;51.718;8.938;2023-06-22T04:55:08;18.90;99.90
26691;DHT22;14307;51.718;8.938;2023-06-22T04:57:35;18.90;99.90
26691;DHT22;14307;51.718;8.938;2023-06-22T05:00:02;18.80;99.90
26691;DHT22;14307;51.718;8.938;2023-06-22T05:02:40;18.90;99.90
26691;DHT22;14307;51.718;8.938;2023-06-22T05:05:08;18.90;99.90
26691;DHT22;14307;51.718;8.938;2023-06-22T05:07:36;19.00;99.90
26691;DHT22;14307;51.718;8.938;2023-06-22T05:10:03;19.10;99.90
26691;DHT22;14307;51.718;8.938;2023-06-22T05:12:30;19.00;99.90
26691;DHT22;14307;51.718;8.938;2023-06-22T05:14:57;19.10;99.90
26691;DHT22;14307;51.718;8.938;2023-06-22T05:17:24;19.10;99.90
26691;DHT22;14307;51.718;8.938;2023-06-22T05:19:51;19.10;99.90
26691;DHT22;14307;51.718;8.938;2023-06-22T05:22:18;19.20;99.90
26691;DHT22;14307;51.718;8.938;2023-06-22T05:24:45;19.10;99.90
26691;DHT22;14307;51.718;8.938;2023-06-22T05:27:13;19.10;99.90
26691;DHT22;14307;51.718;8.938;2023-06-22T05:29:40;19.20;99.90
26691;DHT22;14307;51.718;8.938;2023-06-22T05:32:07;19.10;99.90
26691;DHT22;14307;51.718;8.938;2023-06-22T05:34:34;19.20;99.90
26691;DHT22;14307;51.718;8.938;2023-06-22T05:37:02;19.30;99.90
26691;DHT22;14307;51.718;8.938;2023-06-22T05:39:29;19.40;99.90
26691;DHT22;14307;51.718;8.938;2023-06-22T05:41:56;19.40;99.90
26691;DHT22;14307;51.718;8.938;2023-06-22T05:44:22;19.30;99.90
26691;DHT22;14307;51.718;8.938;2023-06-22T05:46:49;19.30;99.90
26691;DHT22;14307;51.718;8.938;2023-06-22T05:49:16;19.30;99.90
26691;DHT22;14307;51.718;8.938;2023-06-22T05:51:43;19.20;99.90
26691;DHT22;14307;51.718;8.938;2023-06-22T05:54:10;19.10;99.90
26691;DHT22;14307;51.718;8.938;2023-06-22T05:56:37;19.10;99.90
26691;DHT22;14307;51.718;8.938;2023-06-22T05:59:04;19.00;99.90
26691;DHT22;14307;51.718;8.938;2023-06-22T06:01:30;19.00;99.90
26691;DHT22;14307;51.718;8.938;2023-06-22T06:04:05;19.10;99.90
26691;DHT22;14307;51.718;8.938;2023-06-22T06:06:36;19.10;99.90
26691;DHT22;14307;51.718;8.938;2023-06-22T06:09:04;19.20;99.90
26691;DHT22;14307;51.718;8.938;2023-06-22T06:11:31;19.20;99.90
26691;DHT22;14307;51.718;8.938;2023-06-22T06:13:58;19.20;99.90
26691;DHT22;14307;51.718;8.938;2023-06-22T06:16:25;19.30;99.90
26691;DHT22;14307;51.718;8.938;2023-06-22T06:18:52;19.30;99.90
26691;DHT22;14307;51.718;8.938;2023-06-22T06:21:21;19.40;99.90
26691;DHT22;14307;51.718;8.938;2023-06-22T06:23:48;19.60;99.90
26691;DHT22;14307;51.718;8.938;2023-06-22T06:26:14;19.50;99.90
26691;DHT22;14307;51.718;8.938;2023-06-22T06:28:43;19.60;99.90
26691;DHT22;14307;51.718;8.938;2023-06-22T06:31:10;19.70;99.90
26691;DHT22;14307;51.718;8.938;2023-06-22T06:33:38;19.90;99.90
26691;DHT22;14307;51.718;8.938;2023-06-22T06:36:05;19.80;99.90
26691;DHT22;14307;51.718;8.938;2023-06-22T06:38:32;19.80;99.90
26691;DHT22;14307;51.718;8.938;2023-06-22T06:40:59;19.60;99.90
26691;DHT22;14307;51.718;8.938;2023-06-22T06:43:26;19.50;99.90
26691;DHT22;14307;51.718;8.938;2023-06-22T06:45:53;19.40;99.90
26691;DHT22;14307;51.718;8.938;2023-06-22T06:48:20;19.50;99.90
26691;DHT22;14307;51.718;8.938;2023-06-22T06:50:47;19.50;99.90
26691;DHT22;14307;51.718;8.938;2023-06-22T06:53:14;19.50;99.90
26691;DHT22;14307;51.718;8.938;2023-06-22T06:55:40;19.50;99.90
26691;DHT22;14307;51.718;8.938;2023-06-22T06:58:07;19.60;99.90
26691;DHT22;14307;51.718;8.938;2023-06-22T07:00:36;19.70;99.90
26691;DHT22;14307;51.718;8.938;2023-06-22T07:03:04;19.80;99.90
26691;DHT22;14307;51.718;8.938;2023-06-22T07:05:30;19.90;99.90
26691;DHT22;14307;51.718;8.938;2023-06-22T07:07:57;20.00;99.90
26691;DHT22;14307;51.718;8.938;2023-06-22T07:10:24;20.10;99.90
26691;DHT22;14307;51.718;8.938;2023-06-22T07:12:51;20.10;99.90
26691;DHT22;14307;51.718;8.938;2023-06-22T07:15:18;20.10;99.90
26691;DHT22;14307;51.718;8.938;2023-06-22T07:17:45;20.10;99.90
26691;DHT22;14307;51.718;8.938;2023-06-22T07:20:12;20.30;99.90
26691;DHT22;14307;51.718;8.938;2023-06-22T07:22:40;20.30;99.90
26691;DHT22;14307;51.718;8.938;2023-06-22T07:25:08;20.30;99.90
26691;DHT22;14307;51.718;8.938;2023-06-22T07:27:46;20.30;99.90
26691;DHT22;14307;51.718;8.938;2023-06-22T07:30:14;20.30;99.90
26691;DHT22;14307;51.718;8.938;2023-06-22T07:32:41;20.30;99.90
26691;DHT22;14307;51.718;8.938;2023-06-22T07:35:08;20.20;99.90
26691;DHT22;14307;51.718;8.938;2023-06-22T07:37:35;20.20;99.90
26691;DHT22;14307;51.718;8.938;2023-06-22T07:40:02;20.60;99.90
26691;DHT22;14307;51.718;8.938;2023-06-22T07:42:32;20.40;99.90
26691;DHT22;14307;51.718;8.938;2023-06-22T07:45:00;20.40;99.90
26691;DHT22;14307;51.718;8.938;2023-06-22T07:47:28;20.30;99.90
26691;DHT22;14307;51.718;8.938;2023-06-22T07:49:57;20.20;99.90
26691;DHT22;14307;51.718;8.938;2023-06-22T07:52:24;20.10;99.90
26691;DHT22;14307;51.718;8.938;2023-06-22T07:54:52;20.20;99.90
26691;DHT22;14307;51.718;8.938;2023-06-22T07:57:19;20.30;99.90
26691;DHT22;14307;51.718;8.938;2023-06-22T07:59:47;20.50;99.90
26691;DHT22;14307;51.718;8.938;2023-06-22T08:02:14;20.60;99.90
26691;DHT22;14307;51.718;8.938;2023-06-22T08:04:41;20.80;99.90
26691;DHT22;14307;51.718;8.938;2023-06-22T08:07:08;20.90;99.90
26691;DHT22;14307;51.718;8.938;2023-06-22T08:09:35;21.00;99.90
26691;DHT22;14307;51.718;8.938;2023-06-22T08:12:02;21.20;99.90
26691;DHT22;14307;51.718;8.938;2023-06-22T08:14:29;21.40;99.90
26691;DHT22;14307;51.718;8.938;2023-06-22T08:16:56;21.50;99.90
26691;DHT22;14307;51.718;8.938;2023-06-22T08:19:23;21.40;99.90
26691;DHT22;14307;51.718;8.938;2023-06-22T08:21:50;21.20;99.90
26691;DHT22;14307;51.718;8.938;2023-06-22T08:24:16;21.30;99.90
26691;DHT22;14307;51.718;8.938;2023-06-22T08:26:43;21.50;99.90
26691;DHT22;14307;51.718;8.938;2023-06-22T08:29:10;21.80;99.90
26691;DHT22;14307;51.718;8.938;2023-06-22T08:31:37;22.10;99.90
26691;DHT22;14307;51.718;8.938;2023-06-22T08:34:04;22.10;99.90
26691;DHT22;14307;51.718;8.938;2023-06-22T08:36:31;22.30;99.90
26691;DHT22;14307;51.718;8.938;2023-06-22T08:39:01;22.50;99.90
26691;DHT22;14307;51.718;8.938;2023-06-22T08:41:30;22.80;99.90
26691;DHT22;14307;51.718;8.938;2023-06-22T08:43:57;22.80;99.90
26691;DHT22;14307;51.718;8.938;2023-06-22T08:46:24;23.10;99.90
26691;DHT22;14307;51.718;8.938;2023-06-22T08:48:57;23.10;99.90
26691;DHT22;14307;51.718;8.938;2023-06-22T08:51:27;23.10;99.90
26691;DHT22;14307;51.718;8.938;2023-06-22T08:53:54;23.20;99.90
26691;DHT22;14307;51.718;8.938;2023-06-22T08:56:20;23.30;99.90
26691;DHT22;14307;51.718;8.938;2023-06-22T08:58:47;23.30;99.90
26691;DHT22;14307;51.718;8.938;2023-06-22T09:01:14;23.50;99.90
26691;DHT22;14307;51.718;8.938;2023-06-22T09:03:42;23.80;99.90
26691;DHT22;14307;51.718;8.938;2023-06-22T09:06:09;23.80;99.90
26691;DHT22;14307;51.718;8.938;2023-06-22T09:08:36;23.90;99.90
26691;DHT22;14307;51.718;8.938;2023-06-22T09:11:03;24.10;99.90
26691;DHT22;14307;51.718;8.938;2023-06-22T09:13:31;23.70;99.90
26691;DHT22;14307;51.718;8.938;2023-06-22T09:15:58;23.90;99.90
26691;DHT22;14307;51.718;8.938;2023-06-22T09:18:25;23.90;99.90
26691;DHT22;14307;51.718;8.938;2023-06-22T09:20:52;24.40;99.90
26691;DHT22;14307;51.718;8.938;2023-06-22T09:23:19;24.00;99.90
26691;DHT22;14307;51.718;8.938;2023-06-22T09:25:45;24.30;99.90
26691;DHT22;14307;51.718;8.938;2023-06-22T09:28:15;24.60;99.90
26691;DHT22;14307;51.718;8.938;2023-06-22T09:30:43;24.10;99.90
26691;DHT22;14307;51.718;8.938;2023-06-22T09:33:11;24.10;99.90
26691;DHT22;14307;51.718;8.938;2023-06-22T09:35:38;24.10;99.90
26691;DHT22;14307;51.718;8.938;2023-06-22T09:38:05;24.60;99.90
26691;DHT22;14307;51.718;8.938;2023-06-22T09:40:31;25.20;99.90
26691;DHT22;14307;51.718;8.938;2023-06-22T09:43:02;25.10;99.90
26691;DHT22;14307;51.718;8.938;2023-06-22T09:45:28;24.80;99.90
26691;DHT22;14307;51.718;8.938;2023-06-22T09:47:55;24.40;99.90
26691;DHT22;14307;51.718;8.938;2023-06-22T09:50:22;24.10;99.90
26691;DHT22;14307;51.718;8.938;2023-06-22T09:52:48;24.00;99.90
26691;DHT22;14307;51.718;8.938;2023-06-22T09:55:21;24.40;99.90
26691;DHT22;14307;51.718;8.938;2023-06-22T09:57:48;24.40;99.90
26691;DHT22;14307;51.718;8.938;2023-06-22T10:00:17;24.30;99.90
26691;DHT22;14307;51.718;8.938;2023-06-22T10:02:44;24.50;99.90
26691;DHT22;14307;51.718;8.938;2023-06-22T10:05:11;24.80;99.90
26691;DHT22;14307;51.718;8.938;2023-06-22T10:07:39;25.20;99.90
26691;DHT22;14307;51.718;8.938;2023-06-22T10:10:10;25.20;99.90
26691;DHT22;14307;51.718;8.938;2023-06-22T10:12:41;25.40;99.90
26691;DHT22;14307;51.718;8.938;2023-06-22T10:15:08;25.50;99.90
26691;DHT22;14307;51.718;8.938;2023-06-22T10:17:36;25.80;99.90
26691;DHT22;14307;51.718;8.938;2023-06-22T10:20:03;26.10;99.90
26691;DHT22;14307;51.718;8.938;2023-06-22T10:22:42;26.30;99.90
26691;DHT22;14307;51.718;8.938;2023-06-22T10:25:11;26.70;99.90
26691;DHT22;14307;51.718;8.938;2023-06-22T10:27:38;26.90;99.90
26691;DHT22;14307;51.718;8.938;2023-06-22T10:30:10;27.20;99.90
26691;DHT22;14307;51.718;8.938;2023-06-22T10:32:41;27.40;99.90
26691;DHT22;14307;51.718;8.938;2023-06-22T10:35:09;27.60;99.90
26691;DHT22;14307;51.718;8.938;2023-06-22T10:37:43;27.20;99.90
26691;DHT22;14307;51.718;8.938;2023-06-22T10:40:12;26.80;99.90
26691;DHT22;14307;51.718;8.938;2023-06-22T10:42:39;26.30;99.90
26691;DHT22;14307;51.718;8.938;2023-06-22T10:45:07;26.10;99.90
26691;DHT22;14307;51.718;8.938;2023-06-22T10:47:35;26.30;99.90
26691;DHT22;14307;51.718;8.938;2023-06-22T10:50:03;26.30;99.90
26691;DHT22;14307;51.718;8.938;2023-06-22T10:52:30;26.20;99.90
26691;DHT22;14307;51.718;8.938;2023-06-22T10:54:57;26.10;99.90
26691;DHT22;14307;51.718;8.938;2023-06-22T10:57:24;26.00;99.90
26691;DHT22;14307;51.718;8.938;2023-06-22T10:59:51;25.80;99.90
26691;DHT22;14307;51.718;8.938;2023-06-22T11:02:17;25.60;99.90
26691;DHT22;14307;51.718;8.938;2023-06-22T11:04:45;25.80;99.90
26691;DHT22;14307;51.718;8.938;2023-06-22T11:07:13;25.50;99.90
26691;DHT22;14307;51.718;8.938;2023-06-22T11:09:39;25.80;99.90
26691;DHT22;14307;51.718;8.938;2023-06-22T11:12:06;25.80;99.90
26691;DHT22;14307;51.718;8.938;2023-06-22T11:14:33;25.80;99.90
26691;DHT22;14307;51.718;8.938;2023-06-22T11:17:00;25.90;99.90
26691;DHT22;14307;51.718;8.938;2023-06-22T11:19:27;25.80;99.90
26691;DHT22;14307;51.718;8.938;2023-06-22T11:21:53;26.10;99.90
26691;DHT22;14307;51.718;8.938;2023-06-22T11:24:20;26.20;99.90
26691;DHT22;14307;51.718;8.938;2023-06-22T11:26:47;26.50;99.90
26691;DHT22;14307;51.718;8.938;2023-06-22T11:29:14;26.40;99.90
26691;DHT22;14307;51.718;8.938;2023-06-22T11:32:01;25.70;99.90
26691;DHT22;14307;51.718;8.938;2023-06-22T11:34:27;25.90;99.90
26691;DHT22;14307;51.718;8.938;2023-06-22T11:36:54;26.10;99.90
26691;DHT22;14307;51.718;8.938;2023-06-22T11:39:21;25.90;99.90
26691;DHT22;14307;51.718;8.938;2023-06-22T11:42:05;26.30;99.90
26691;DHT22;14307;51.718;8.938;2023-06-22T11:44:32;26.70;99.90
26691;DHT22;14307;51.718;8.938;2023-06-22T11:46:59;26.60;99.90
26691;DHT22;14307;51.718;8.938;2023-06-22T11:49:27;26.10;99.90
26691;DHT22;14307;51.718;8.938;2023-06-22T11:51:54;25.80;99.90
26691;DHT22;14307;51.718;8.938;2023-06-22T11:54:21;25.80;99.90
26691;DHT22;14307;51.718;8.938;2023-06-22T11:56:48;25.70;99.90
26691;DHT22;14307;51.718;8.938;2023-06-22T11:59:15;26.00;99.90
26691;DHT22;14307;51.718;8.938;2023-06-22T12:01:41;26.10;99.90
26691;DHT22;14307;51.718;8.938;2023-06-22T12:04:08;26.00;99.90
26691;DHT22;14307;51.718;8.938;2023-06-22T12:06:38;26.10;99.90
26691;DHT22;14307;51.718;8.938;2023-06-22T12:09:08;26.60;99.90
26691;DHT22;14307;51.718;8.938;2023-06-22T12:11:35;26.20;99.90
26691;DHT22;14307;51.718;8.938;2023-06-22T12:14:02;25.90;99.90
26691;DHT22;14307;51.718;8.938;2023-06-22T12:16:29;25.90;99.90
26691;DHT22;14307;51.718;8.938;2023-06-22T12:18:56;25.70;99.90
26691;DHT22;14307;51.718;8.938;2023-06-22T12:21:22;25.50;99.90
26691;DHT22;14307;51.718;8.938;2023-06-22T12:23:49;25.70;99.90
26691;DHT22;14307;51.718;8.938;2023-06-22T12:26:16;25.70;99.90
26691;DHT22;14307;51.718;8.938;2023-06-22T12:28:43;25.90;99.90
26691;DHT22;14307;51.718;8.938;2023-06-22T12:31:10;26.00;99.90
26691;DHT22;14307;51.718;8.938;2023-06-22T12:33:36;26.00;99.90
26691;DHT22;14307;51.718;8.938;2023-06-22T12:36:03;25.70;99.90
26691;DHT22;14307;51.718;8.938;2023-06-22T12:38:31;25.80;99.90
26691;DHT22;14307;51.718;8.938;2023-06-22T12:40:58;25.50;99.90
26691;DHT22;14307;51.718;8.938;2023-06-22T12:43:25;25.30;99.90
26691;DHT22;14307;51.718;8.938;2023-06-22T12:45:52;25.30;99.90
26691;DHT22;14307;51.718;8.938;2023-06-22T12:48:21;25.40;99.90
26691;DHT22;14307;51.718;8.938;2023-06-22T12:50:48;25.30;99.90
26691;DHT22;14307;51.718;8.938;2023-06-22T12:53:14;25.40;99.90
26691;DHT22;14307;51.718;8.938;2023-06-22T12:55:41;25.30;99.90
26691;DHT22;14307;51.718;8.938;2023-06-22T12:58:08;24.90;99.90
26691;DHT22;14307;51.718;8.938;2023-06-22T13:00:35;24.00;99.90
26691;DHT22;14307;51.718;8.938;2023-06-22T13:03:02;23.40;99.90
26691;DHT22;14307;51.718;8.938;2023-06-22T13:05:30;23.10;99.90
26691;DHT22;14307;51.718;8.938;2023-06-22T13:07:57;23.00;99.90
26691;DHT22;14307;51.718;8.938;2023-06-22T13:10:24;23.00;99.90
26691;DHT22;14307;51.718;8.938;2023-06-22T13:12:50;22.90;99.90
26691;DHT22;14307;51.718;8.938;2023-06-22T13:15:18;22.80;99.90
26691;DHT22;14307;51.718;8.938;2023-06-22T13:17:45;23.00;99.90
26691;DHT22;14307;51.718;8.938;2023-06-22T13:20:12;23.00;99.90
26691;DHT22;14307;51.718;8.938;2023-06-22T13:22:38;22.80;99.90
26691;DHT22;14307;51.718;8.938;2023-06-22T13:25:10;22.80;99.90
26691;DHT22;14307;51.718;8.938;2023-06-22T13:27:40;22.70;99.90
26691;DHT22;14307;51.718;8.938;2023-06-22T13:30:08;22.70;99.90
26691;DHT22;14307;51.718;8.938;2023-06-22T13:32:40;22.70;99.90
26691;DHT22;14307;51.718;8.938;2023-06-22T13:35:09;22.80;99.90
26691;DHT22;14307;51.718;8.938;2023-06-22T13:37:36;22.90;99.90
26691;DHT22;14307;51.718;8.938;2023-06-22T13:40:07;23.10;99.90
26691;DHT22;14307;51.718;8.938;2023-06-22T13:42:34;23.10;99.90
26691;DHT22;14307;51.718;8.938;2023-06-22T13:45:01;23.20;99.90
26691;DHT22;14307;51.718;8.938;2023-06-22T13:47:29;22.90;99.90
26691;DHT22;14307;51.718;8.938;2023-06-22T13:49:57;22.70;99.90
26691;DHT22;14307;51.718;8.938;2023-06-22T13:52:24;22.40;99.90
26691;DHT22;14307;51.718;8.938;2023-06-22T13:54:51;22.20;99.90
26691;DHT22;14307;51.718;8.938;2023-06-22T13:57:18;21.70;99.90
26691;DHT22;14307;51.718;8.938;2023-06-22T13:59:45;21.30;99.90
26691;DHT22;14307;51.718;8.938;2023-06-22T14:02:12;21.10;99.90
26691;DHT22;14307;51.718;8.938;2023-06-22T14:04:39;21.00;99.90
26691;DHT22;14307;51.718;8.938;2023-06-22T14:07:06;21.00;99.90
26691;DHT22;14307;51.718;8.938;2023-06-22T14:09:32;20.90;99.90
26691;DHT22;14307;51.718;8.938;2023-06-22T14:12:03;20.60;99.90
26691;DHT22;14307;51.718;8.938;2023-06-22T14:14:32;20.30;99.90
26691;DHT22;14307;51.718;8.938;2023-06-22T14:16:59;20.10;99.90
26691;DHT22;14307;51.718;8.938;2023-06-22T14:19:26;19.90;99.90
26691;DHT22;14307;51.718;8.938;2023-06-22T14:21:53;19.70;99.90
26691;DHT22;14307;51.718;8.938;2023-06-22T14:24:20;19.70;99.90
26691;DHT22;14307;51.718;8.938;2023-06-22T14:26:51;19.60;99.90
26691;DHT22;14307;51.718;8.938;2023-06-22T14:29:17;19.60;99.90
26691;DHT22;14307;51.718;8.938;2023-06-22T14:31:46;19.50;99.90
26691;DHT22;14307;51.718;8.938;2023-06-22T14:34:14;19.50;99.90
26691;DHT22;14307;51.718;8.938;2023-06-22T14:36:42;19.50;99.90
26691;DHT22;14307;51.718;8.938;2023-06-22T14:39:09;19.40;99.90
26691;DHT22;14307;51.718;8.938;2023-06-22T14:41:36;19.40;99.90
26691;DHT22;14307;51.718;8.938;2023-06-22T14:44:02;19.40;99.90
26691;DHT22;14307;51.718;8.938;2023-06-22T14:46:29;19.40;99.90
26691;DHT22;14307;51.718;8.938;2023-06-22T14:48:56;19.40;99.90
26691;DHT22;14307;51.718;8.938;2023-06-22T14:51:23;19.30;99.90
26691;DHT22;14307;51.718;8.938;2023-06-22T14:53:50;19.30;99.90
26691;DHT22;14307;51.718;8.938;2023-06-22T14:56:16;19.30;99.90
26691;DHT22;14307;51.718;8.938;2023-06-22T14:58:44;19.20;99.90
26691;DHT22;14307;51.718;8.938;2023-06-22T15:01:16;19.30;99.90
26691;DHT22;14307;51.718;8.938;2023-06-22T15:03:43;19.40;99.90
26691;DHT22;14307;51.718;8.938;2023-06-22T15:06:10;19.40;99.90
26691;DHT22;14307;51.718;8.938;2023-06-22T15:08:38;19.40;99.90
26691;DHT22;14307;51.718;8.938;2023-06-22T15:11:05;19.40;99.90
26691;DHT22;14307;51.718;8.938;2023-06-22T15:13:32;19.50;99.90
26691;DHT22;14307;51.718;8.938;2023-06-22T15:16:01;19.50;99.90
26691;DHT22;14307;51.718;8.938;2023-06-22T15:18:31;19.30;99.90
26691;DHT22;14307;51.718;8.938;2023-06-22T15:21:00;19.30;99.90
26691;DHT22;14307;51.718;8.938;2023-06-22T15:23:28;19.30;99.90
26691;DHT22;14307;51.718;8.938;2023-06-22T15:25:56;19.30;99.90
26691;DHT22;14307;51.718;8.938;2023-06-22T15:28:23;19.30;99.90
26691;DHT22;14307;51.718;8.938;2023-06-22T15:30:50;19.30;99.90
26691;DHT22;14307;51.718;8.938;2023-06-22T15:33:18;19.40;99.90
26691;DHT22;14307;51.718;8.938;2023-06-22T15:35:45;19.40;99.90
26691;DHT22;14307;51.718;8.938;2023-06-22T15:38:12;19.50;99.90
26691;DHT22;14307;51.718;8.938;2023-06-22T15:40:41;19.50;99.90
26691;DHT22;14307;51.718;8.938;2023-06-22T15:43:10;19.50;99.90